Bartow, Florida
Current Conditions -  °F | °C
As of 2:55 AM on Saturday 25 Oct 2014 (Local Time) from KBOW Reporting Station
Clear Clear  
Wind Chill: 17°   Ceiling: Unl
Heat Index: 17°   Visibility: 10mi
Dew Point: 14°   Wind: 9mph
Humidity: 82%   Direction: 350°N
Pressure: 29.96"   Gusts: NA
Location:  27.9°N, 81.84°W
Report Text: KBOW 250655Z AUTO 35008KT 10SM CLR 17/14 A2996 RMK AO2
Loading
Personal Weather Stations






























Interactive Weather Map
Tropical Storm Tracking
New forecast layout! Learn more

10-Day Weather Forecast

Advertisements
Track Severe Weather on mobile